Time;durP1;ratioP1;P1;durP2;ratioP2;P2;SDS_P1;SDS_P2;PMS_P1;PMS_P2;Temp;Humidity;BMP_temperature;BMP_pressure;BME280_temperature;BME280_humidity;BME280_pressure;Samples;Min_cycle;Max_cycle;Signal;HPM_P1;HPM_P2
2022/05/10 00:00:18;;;;;;;8.77;5.63;;;18.00;75.90;;;;;;5092761;28;20419;-81
2022/05/10 00:02:50;;;;;;;10.40;6.20;;;18.00;76.40;;;;;;5093362;28;20031;-81
2022/05/10 00:05:18;;;;;;;12.68;6.35;;;17.90;75.70;;;;;;5092877;28;20030;-82
2022/05/10 00:07:44;;;;;;;7.75;5.35;;;17.90;75.50;;;;;;5093027;28;20458;-81
2022/05/10 00:10:10;;;;;;;8.43;5.88;;;17.90;75.90;;;;;;5092163;28;20103;-81
2022/05/10 00:12:36;;;;;;;15.20;5.75;;;17.90;75.80;;;;;;5092535;28;20435;-81
2022/05/10 00:15:04;;;;;;;7.65;5.78;;;17.90;75.80;;;;;;5093327;28;20052;-81
2022/05/10 00:17:40;;;;;;;7.70;6.63;;;17.80;75.80;;;;;;5093069;28;20024;-81
2022/05/10 00:20:09;;;;;;;9.93;6.18;;;17.80;75.40;;;;;;5093305;28;20074;-81
2022/05/10 00:22:35;;;;;;;7.75;5.32;;;17.80;75.90;;;;;;5092424;28;20217;-81
2022/05/10 00:25:01;;;;;;;7.93;5.78;;;17.70;75.60;;;;;;5093134;28;20039;-81
2022/05/10 00:27:27;;;;;;;8.80;5.85;;;17.70;75.40;;;;;;5092540;28;20024;-80
2022/05/10 00:29:53;;;;;;;6.90;5.50;;;17.60;76.20;;;;;;5092847;28;20028;-81
2022/05/10 00:32:18;;;;;;;13.40;5.90;;;17.60;76.70;;;;;;5092667;28;20157;-81
2022/05/10 00:34:47;;;;;;;7.03;5.50;;;17.60;76.70;;;;;;5092845;28;20028;-80
2022/05/10 00:37:22;;;;;;;7.93;5.68;;;17.60;76.50;;;;;;5092910;28;20027;-80
2022/05/10 00:39:48;;;;;;;7.35;5.75;;;17.60;76.40;;;;;;5093319;28;20024;-81
2022/05/10 00:42:24;;;;;;;9.07;5.57;;;17.50;75.80;;;;;;5092756;28;20076;-81
2022/05/10 00:44:56;;;;;;;8.52;5.28;;;17.40;76.60;;;;;;5092684;28;20461;-81
2022/05/10 00:47:56;;;;;;;6.75;5.25;;;17.40;76.90;;;;;;5092188;28;20103;-80
2022/05/10 00:51:06;;;;;;;7.35;5.18;;;17.30;76.30;;;;;;5091975;28;20036;-81
2022/05/10 00:53:58;;;;;;;8.80;5.63;;;17.20;77.00;;;;;;5075622;28;20040;-80
2022/05/10 00:56:52;;;;;;;6.70;4.97;;;17.10;77.70;;;;;;5091988;28;20210;-81
2022/05/10 00:59:23;;;;;;;10.02;5.47;;;17.00;77.10;;;;;;5107814;28;20106;-88
2022/05/10 01:01:55;;;;;;;9.05;5.53;;;17.00;77.40;;;;;;5092395;28;20024;-80
2022/05/10 01:04:35;;;;;;;10.48;5.70;;;17.00;77.90;;;;;;5092563;28;20050;-81
2022/05/10 01:07:09;;;;;;;10.35;5.10;;;17.00;77.60;;;;;;5092496;28;20028;-80
2022/05/10 01:09:44;;;;;;;7.07;4.72;;;16.90;78.20;;;;;;5091709;28;20491;-80
2022/05/10 01:12:42;;;;;;;7.35;5.40;;;16.90;78.30;;;;;;5091966;28;20448;-80
2022/05/10 01:15:18;;;;;;;9.43;5.40;;;16.90;78.20;;;;;;5092149;28;20040;-80
2022/05/10 01:17:45;;;;;;;7.45;4.95;;;16.90;77.60;;;;;;5091599;28;20453;-80
2022/05/10 01:20:14;;;;;;;5.97;5.10;;;16.90;77.30;;;;;;5091570;28;20028;-80
2022/05/10 01:22:58;;;;;;;8.10;5.15;;;16.90;78.00;;;;;;5091548;28;20097;-80
2022/05/10 01:25:42;;;;;;;9.43;5.10;;;16.90;78.00;;;;;;5091434;28;20020;-81
2022/05/10 01:28:16;;;;;;;5.55;4.97;;;16.80;78.10;;;;;;5090981;28;20329;-80
2022/05/10 01:30:43;;;;;;;5.82;4.93;;;16.70;78.00;;;;;;5091387;28;20032;-80
2022/05/10 01:33:38;;;;;;;8.27;4.78;;;16.70;79.00;;;;;;5092157;28;20024;-80
2022/05/10 01:36:32;;;;;;;5.97;4.57;;;16.70;78.70;;;;;;5100137;28;20032;-81
2022/05/10 01:39:04;;;;;;;7.55;5.18;;;16.60;79.00;;;;;;5091588;28;20034;-83
2022/05/10 01:41:52;;;;;;;8.52;5.13;;;16.60;79.30;;;;;;5090879;28;20063;-82
2022/05/10 01:44:25;;;;;;;7.97;4.90;;;16.60;79.60;;;;;;5091508;28;20130;-80
2022/05/10 01:46:57;;;;;;;8.20;4.95;;;16.50;80.20;;;;;;5092043;28;20029;-80
2022/05/10 01:49:30;;;;;;;7.57;5.15;;;16.50;80.30;;;;;;5091423;28;20448;-82
2022/05/10 01:52:03;;;;;;;8.55;4.82;;;16.50;80.70;;;;;;5091414;28;20325;-80
2022/05/10 01:54:40;;;;;;;12.85;5.28;;;16.50;81.10;;;;;;5091103;28;20050;-80
2022/05/10 01:57:15;;;;;;;10.65;4.82;;;16.50;80.90;;;;;;5091656;28;20095;-80
2022/05/10 01:59:48;;;;;;;7.97;5.25;;;16.50;81.30;;;;;;5091704;28;20473;-80
2022/05/10 02:02:16;;;;;;;10.43;5.13;;;16.50;81.00;;;;;;5091475;28;20038;-80
2022/05/10 02:04:46;;;;;;;7.43;5.05;;;16.50;80.70;;;;;;5091029;28;20327;-80
2022/05/10 02:07:19;;;;;;;6.43;4.75;;;16.50;80.40;;;;;;5091489;28;20123;-80
2022/05/10 02:10:12;;;;;;;11.05;5.38;;;16.40;80.10;;;;;;5070603;28;20515;-82
2022/05/10 02:12:46;;;;;;;6.60;4.68;;;16.50;80.20;;;;;;5086628;28;20028;-80
2022/05/10 02:15:30;;;;;;;9.63;4.90;;;16.40;79.10;;;;;;5071354;28;20049;-80
2022/05/10 02:18:06;;;;;;;6.32;4.63;;;16.40;78.20;;;;;;5071805;28;20035;-80
2022/05/10 02:20:43;;;;;;;8.48;5.03;;;16.40;78.10;;;;;;5070928;28;20426;-81
2022/05/10 02:23:32;;;;;;;10.18;4.80;;;16.40;77.30;;;;;;5071405;28;20124;-80
2022/05/10 02:26:03;;;;;;;8.88;5.15;;;16.40;77.20;;;;;;5087163;28;20373;-80
2022/05/10 02:28:48;;;;;;;9.50;4.40;;;16.40;76.80;;;;;;5070753;28;20033;-80
2022/05/10 02:31:23;;;;;;;9.07;4.75;;;16.40;76.00;;;;;;5071350;28;20078;-80
2022/05/10 02:33:50;;;;;;;11.13;5.15;;;16.40;76.50;;;;;;5073655;28;20134;-80
2022/05/10 02:36:16;;;;;;;10.00;5.68;;;16.40;77.10;;;;;;5075010;28;20039;-79
2022/05/10 02:38:43;;;;;;;7.95;5.05;;;16.30;77.50;;;;;;5074351;28;20043;-79
2022/05/10 02:41:19;;;;;;;6.97;5.10;;;16.30;78.60;;;;;;5075082;28;20032;-79
2022/05/10 02:43:54;;;;;;;6.32;4.43;;;16.20;79.90;;;;;;5074565;28;20078;-79
2022/05/10 02:46:19;;;;;;;7.25;5.50;;;16.10;81.10;;;;;;5074743;28;20024;-80
2022/05/10 02:48:47;;;;;;;7.53;4.43;;;16.10;80.40;;;;;;5074031;28;20157;-80
2022/05/10 02:51:13;;;;;;;5.90;4.68;;;16.00;80.90;;;;;;5074541;28;20035;-78
2022/05/10 02:53:39;;;;;;;7.07;4.90;;;16.00;81.20;;;;;;5073422;28;20036;-79
2022/05/10 02:56:14;;;;;;;10.90;5.22;;;16.00;80.90;;;;;;5074880;28;20036;-80
2022/05/10 02:58:44;;;;;;;8.55;4.80;;;15.90;80.80;;;;;;5074978;28;20039;-80
2022/05/10 03:01:16;;;;;;;7.95;4.90;;;15.90;79.70;;;;;;5074630;28;20120;-79
2022/05/10 03:03:42;;;;;;;7.55;4.82;;;15.80;80.90;;;;;;5073885;28;20070;-80
2022/05/10 03:06:08;;;;;;;6.22;5.10;;;15.80;80.40;;;;;;5074347;28;20103;-79
2022/05/10 03:08:34;;;;;;;8.90;5.15;;;15.80;80.90;;;;;;5089587;28;20350;-80
2022/05/10 03:11:00;;;;;;;8.32;4.72;;;15.80;80.20;;;;;;5074309;28;20036;-80
2022/05/10 03:13:25;;;;;;;8.35;4.75;;;15.80;80.70;;;;;;5074245;28;20028;-80
2022/05/10 03:15:51;;;;;;;6.50;5.05;;;15.80;80.20;;;;;;5073985;28;20068;-80
2022/05/10 03:18:17;;;;;;;7.88;5.13;;;15.70;80.80;;;;;;5089793;28;20024;-80
2022/05/10 03:20:44;;;;;;;9.13;5.50;;;15.80;80.90;;;;;;5073504;28;20093;-81
2022/05/10 03:23:09;;;;;;;7.47;4.72;;;15.70;80.70;;;;;;5074327;28;20031;-80
2022/05/10 03:25:35;;;;;;;7.47;4.90;;;15.70;81.50;;;;;;5082588;28;20032;-80
2022/05/10 03:28:01;;;;;;;6.85;5.32;;;15.70;81.80;;;;;;5094408;28;20493;-80
2022/05/10 03:30:29;;;;;;;6.90;5.00;;;15.70;81.30;;;;;;5094166;28;20058;-80
2022/05/10 03:32:55;;;;;;;7.68;5.20;;;15.70;81.70;;;;;;5090293;28;20036;-81
2022/05/10 03:35:21;;;;;;;7.60;5.30;;;15.80;81.70;;;;;;5093209;28;20118;-81
2022/05/10 03:37:47;;;;;;;7.63;5.57;;;15.80;81.90;;;;;;5089070;28;20039;-80
2022/05/10 03:40:13;;;;;;;8.77;5.57;;;15.80;81.90;;;;;;5090439;28;20111;-81
2022/05/10 03:42:43;;;;;;;7.55;5.90;;;15.80;81.00;;;;;;5091066;28;20153;-80
2022/05/10 03:45:09;;;;;;;9.13;5.80;;;15.80;81.10;;;;;;5091921;28;20024;-80
2022/05/10 03:47:35;;;;;;;7.78;5.32;;;15.70;81.40;;;;;;5093705;28;20056;-80
2022/05/10 03:50:03;;;;;;;13.45;6.20;;;15.60;82.40;;;;;;5093717;28;20031;-79
2022/05/10 03:52:29;;;;;;;7.55;6.00;;;15.70;82.50;;;;;;5093832;28;20032;-79
2022/05/10 03:54:54;;;;;;;6.20;5.60;;;15.70;82.80;;;;;;5090851;28;20027;-80
2022/05/10 03:57:20;;;;;;;7.25;6.28;;;15.70;83.00;;;;;;5093285;28;20031;-80
2022/05/10 03:59:46;;;;;;;9.43;5.88;;;15.70;82.20;;;;;;5093186;28;20032;-80
2022/05/10 04:02:13;;;;;;;12.05;6.03;;;15.60;83.20;;;;;;5093384;28;20069;-81
2022/05/10 04:04:39;;;;;;;7.40;5.45;;;15.70;83.60;;;;;;5093306;28;20575;-81
2022/05/10 04:07:05;;;;;;;9.18;6.15;;;15.70;83.60;;;;;;5093155;28;20461;-80
2022/05/10 04:09:32;;;;;;;8.63;6.63;;;15.70;82.50;;;;;;5093619;28;20055;-80
2022/05/10 04:11:57;;;;;;;9.63;6.38;;;15.70;83.10;;;;;;5090152;28;20036;-77
2022/05/10 04:14:24;;;;;;;11.20;6.10;;;15.70;83.30;;;;;;5093735;28;20126;-77
2022/05/10 04:16:50;;;;;;;8.82;6.47;;;15.70;84.20;;;;;;5092586;28;20052;-78
2022/05/10 04:19:16;;;;;;;7.25;6.07;;;15.80;83.90;;;;;;5093491;28;20455;-76
2022/05/10 04:21:41;;;;;;;9.88;6.07;;;15.80;84.10;;;;;;5090925;28;20117;-78
2022/05/10 04:24:08;;;;;;;11.48;6.30;;;15.80;84.10;;;;;;5091320;28;20103;-78
2022/05/10 04:26:33;;;;;;;10.05;6.32;;;15.80;84.50;;;;;;5091469;28;20020;-77
2022/05/10 04:28:59;;;;;;;10.52;6.25;;;15.90;84.30;;;;;;5092162;28;20035;-78
2022/05/10 04:31:24;;;;;;;10.00;6.43;;;16.00;84.30;;;;;;5092302;28;20028;-77
2022/05/10 04:33:50;;;;;;;8.73;6.20;;;16.10;83.80;;;;;;5091562;28;20032;-78
2022/05/10 04:36:16;;;;;;;10.38;6.07;;;16.30;82.60;;;;;;5092275;28;20107;-78
2022/05/10 04:38:46;;;;;;;12.50;6.65;;;16.40;81.70;;;;;;5089464;28;20056;-78
2022/05/10 04:41:27;;;;;;;8.95;6.90;;;16.50;79.70;;;;;;5103405;28;20023;-78
2022/05/10 04:43:54;;;;;;;15.20;6.40;;;16.60;79.30;;;;;;5097673;28;20326;-76
2022/05/10 04:46:20;;;;;;;12.27;6.78;;;16.70;79.30;;;;;;5091868;28;20511;-77
2022/05/10 04:48:46;;;;;;;14.13;7.07;;;16.80;79.10;;;;;;5091620;28;20040;-78
2022/05/10 04:51:12;;;;;;;10.60;6.90;;;16.90;77.80;;;;;;5091650;28;20150;-77
2022/05/10 04:53:38;;;;;;;10.43;6.95;;;17.10;77.50;;;;;;5091185;28;20024;-77
2022/05/10 04:56:05;;;;;;;12.65;6.80;;;17.20;77.40;;;;;;5091424;28;20031;-77
2022/05/10 04:58:31;;;;;;;15.60;7.72;;;17.40;75.80;;;;;;5091776;28;20148;-77
2022/05/10 05:01:04;;;;;;;16.13;7.28;;;17.50;73.60;;;;;;5091118;28;20111;-79
2022/05/10 05:03:29;;;;;;;11.32;6.95;;;17.60;73.70;;;;;;5081458;28;20121;-78
2022/05/10 05:05:55;;;;;;;13.95;6.65;;;17.60;73.70;;;;;;5099004;28;20439;-78
2022/05/10 05:08:21;;;;;;;13.55;6.40;;;17.80;73.40;;;;;;5091376;28;20028;-78
2022/05/10 05:10:46;;;;;;;10.95;6.03;;;18.00;73.30;;;;;;5090724;28;20040;-78
2022/05/10 05:13:16;;;;;;;11.00;6.50;;;18.20;72.20;;;;;;5091558;28;20027;-78
2022/05/10 05:15:42;;;;;;;14.50;6.05;;;18.50;70.80;;;;;;5091006;28;20096;-75
2022/05/10 05:18:09;;;;;;;8.25;5.50;;;18.70;68.90;;;;;;5091647;28;20028;-77
2022/05/10 05:20:36;;;;;;;9.98;5.90;;;18.90;67.40;;;;;;5091925;28;20039;-77
2022/05/10 05:23:08;;;;;;;11.13;6.15;;;19.20;65.70;;;;;;5090998;28;20090;-77
2022/05/10 05:25:37;;;;;;;20.40;6.57;;;19.50;64.60;;;;;;5091577;28;20464;-77
2022/05/10 05:28:04;;;;;;;13.48;5.95;;;20.30;63.40;;;;;;5091476;28;20059;-77
2022/05/10 05:30:30;;;;;;;8.68;6.03;;;21.20;59.80;;;;;;5091319;28;20472;-77
2022/05/10 05:32:56;;;;;;;9.23;5.47;;;22.30;56.50;;;;;;5090538;28;20280;-77
2022/05/10 05:35:21;;;;;;;10.63;5.15;;;23.10;53.10;;;;;;5091055;28;20029;-76
2022/05/10 05:37:47;;;;;;;10.63;5.05;;;24.00;50.00;;;;;;5090890;28;20024;-77
2022/05/10 05:40:16;;;;;;;9.35;5.28;;;24.90;47.80;;;;;;5091485;28;20318;-77
2022/05/10 05:42:42;;;;;;;8.60;5.15;;;25.60;45.80;;;;;;5090684;28;20028;-78
2022/05/10 05:45:10;;;;;;;10.70;4.90;;;26.30;43.40;;;;;;5091170;28;20107;-77
2022/05/10 05:47:36;;;;;;;10.00;5.53;;;26.90;42.60;;;;;;5091178;28;20024;-76
2022/05/10 05:50:03;;;;;;;9.52;4.85;;;27.60;40.80;;;;;;5090737;28;20035;-79
2022/05/10 05:52:28;;;;;;;9.77;5.30;;;28.20;40.10;;;;;;5090730;28;20586;-76
2022/05/10 05:54:54;;;;;;;10.18;5.05;;;28.70;38.80;;;;;;5090369;28;20055;-77
2022/05/10 05:57:21;;;;;;;8.60;4.88;;;29.30;38.30;;;;;;5090928;28;20105;-76
2022/05/10 05:59:47;;;;;;;7.75;4.43;;;29.90;37.10;;;;;;5090566;28;20502;-77
2022/05/10 06:02:17;;;;;;;7.65;4.80;;;30.30;35.40;;;;;;5090546;28;20023;-77
2022/05/10 06:04:43;;;;;;;11.98;4.78;;;30.90;34.80;;;;;;5090723;28;20028;-76
2022/05/10 06:07:09;;;;;;;13.50;5.28;;;31.40;34.60;;;;;;5093005;28;20043;-77
2022/05/10 06:09:36;;;;;;;9.68;4.45;;;31.90;32.50;;;;;;5110622;28;20372;-77
2022/05/10 06:12:03;;;;;;;11.57;4.75;;;32.20;31.50;;;;;;5094053;28;20478;-76
2022/05/10 06:14:29;;;;;;;13.45;4.70;;;32.50;31.80;;;;;;5094785;28;20088;-76
2022/05/10 06:16:57;;;;;;;13.32;4.20;;;32.60;31.20;;;;;;5093724;28;20036;-77
2022/05/10 06:19:23;;;;;;;8.05;4.25;;;32.50;30.60;;;;;;5094463;28;20024;-77
2022/05/10 06:21:49;;;;;;;7.30;3.90;;;31.60;30.80;;;;;;5093791;28;20031;-75
2022/05/10 06:24:15;;;;;;;10.80;4.85;;;30.70;32.40;;;;;;5094664;28;20028;-76
2022/05/10 06:26:41;;;;;;;6.93;4.03;;;30.20;32.60;;;;;;5093657;28;20384;-78
2022/05/10 06:29:06;;;;;;;9.80;3.72;;;29.40;33.00;;;;;;5094123;28;20024;-76
2022/05/10 06:31:32;;;;;;;12.30;4.18;;;28.70;33.60;;;;;;5094255;28;20036;-76
2022/05/10 06:33:58;;;;;;;13.95;4.10;;;28.20;33.90;;;;;;5093365;28;20084;-76
2022/05/10 06:36:23;;;;;;;10.73;4.28;;;28.10;35.50;;;;;;5093745;28;20032;-77
2022/05/10 06:38:50;;;;;;;7.65;4.32;;;27.90;35.40;;;;;;5092961;28;20177;-78
2022/05/10 06:41:16;;;;;;;8.93;4.00;;;27.80;35.70;;;;;;5093837;28;20036;-77
2022/05/10 06:43:41;;;;;;;10.73;3.63;;;28.00;35.60;;;;;;5093199;28;20073;-83
2022/05/10 06:46:20;;;;;;;13.98;4.68;;;28.20;36.90;;;;;;5093792;28;20020;-77
2022/05/10 06:48:46;;;;;;;8.18;3.80;;;28.40;35.40;;;;;;5093133;28;20381;-77
2022/05/10 06:51:14;;;;;;;14.50;4.28;;;28.60;35.00;;;;;;5093885;28;20043;-78
2022/05/10 06:53:40;;;;;;;12.82;4.40;;;29.00;33.30;;;;;;5093718;28;20032;-77
2022/05/10 06:56:07;;;;;;;12.32;4.15;;;29.10;32.90;;;;;;5092939;28;20043;-77
2022/05/10 06:58:33;;;;;;;10.57;4.30;;;29.60;34.10;;;;;;5093270;28;20059;-76
2022/05/10 07:00:59;;;;;;;11.52;4.88;;;29.90;33.50;;;;;;5092595;28;20457;-77
2022/05/10 07:03:32;;;;;;;11.85;4.45;;;29.90;33.30;;;;;;5072879;28;20531;-76
2022/05/10 07:06:03;;;;;;;15.20;4.20;;;30.10;33.00;;;;;;5072463;28;20025;-77
2022/05/10 07:08:29;;;;;;;8.35;4.13;;;29.90;32.50;;;;;;5072750;28;20036;-77
2022/05/10 07:10:55;;;;;;;9.20;4.45;;;29.80;32.50;;;;;;5072332;28;20090;-76
2022/05/10 07:13:23;;;;;;;9.20;4.40;;;29.50;32.70;;;;;;5072553;28;20183;-76
2022/05/10 07:15:49;;;;;;;11.13;3.88;;;29.40;33.00;;;;;;5074836;28;20059;-78
2022/05/10 07:18:16;;;;;;;13.13;4.88;;;29.20;35.00;;;;;;5092548;28;20089;-77
2022/05/10 07:20:43;;;;;;;11.07;4.97;;;29.30;33.30;;;;;;5108553;28;20434;-76
2022/05/10 07:23:10;;;;;;;13.27;4.57;;;29.10;33.60;;;;;;5093122;28;20057;-77
2022/05/10 07:25:37;;;;;;;11.43;4.53;;;29.10;33.60;;;;;;5093107;28;20028;-78
2022/05/10 07:28:03;;;;;;;15.18;4.57;;;29.10;33.70;;;;;;5092478;28;20049;-76
2022/05/10 07:30:30;;;;;;;9.32;4.70;;;29.30;34.40;;;;;;5092857;28;20044;-77
2022/05/10 07:32:56;;;;;;;9.05;4.70;;;29.80;34.60;;;;;;5092209;28;20084;-77
2022/05/10 07:38:13;;;;;;;10.18;4.60;;;30.10;33.30;;;;;;5092310;28;20058;-76
2022/05/10 07:40:39;;;;;;;;;;;30.30;32.90;;;;;;5093360;28;20035;-76
2022/05/10 07:43:05;;;;;;;13.38;4.50;;;30.70;34.50;;;;;;5092403;28;19950;-76
2022/05/10 07:45:32;;;;;;;12.35;4.50;;;31.00;33.60;;;;;;5093083;28;20457;-76
2022/05/10 07:47:57;;;;;;;10.30;4.35;;;31.20;32.00;;;;;;5090915;28;20365;-76
2022/05/10 07:50:23;;;;;;;10.80;4.43;;;31.20;32.00;;;;;;5092971;28;20043;-76
2022/05/10 07:52:49;;;;;;;11.90;4.18;;;31.30;31.70;;;;;;5092102;28;20123;-78
2022/05/10 07:55:15;;;;;;;7.88;4.15;;;31.50;31.80;;;;;;5092417;28;20056;-77
2022/05/10 07:57:44;;;;;;;7.97;3.97;;;31.80;31.60;;;;;;5092831;28;20049;-77
2022/05/10 08:00:12;;;;;;;13.70;4.33;;;32.10;31.20;;;;;;5092391;28;20032;-76
2022/05/10 08:02:42;;;;;;;12.02;4.15;;;32.40;31.30;;;;;;5092360;28;20732;-76
2022/05/10 08:05:09;;;;;;;8.85;4.10;;;32.60;31.10;;;;;;5092251;28;20083;-75
2022/05/10 08:07:35;;;;;;;9.23;4.30;;;32.90;30.70;;;;;;5092806;28;20024;-76
2022/05/10 08:10:01;;;;;;;10.60;4.47;;;33.10;30.70;;;;;;5092282;28;20401;-77
2022/05/10 08:12:27;;;;;;;7.38;3.95;;;33.00;30.40;;;;;;5090983;28;20024;-77
2022/05/10 08:14:52;;;;;;;10.23;4.65;;;33.00;31.30;;;;;;5090987;28;20036;-78
2022/05/10 08:17:18;;;;;;;15.80;4.18;;;32.70;31.10;;;;;;5092091;28;20052;-76
2022/05/10 08:19:45;;;;;;;10.35;4.55;;;32.60;30.90;;;;;;5092183;28;20306;-78
2022/05/10 08:22:11;;;;;;;12.00;4.38;;;32.40;30.80;;;;;;5091700;28;20408;-76
2022/05/10 08:24:36;;;;;;;9.25;4.50;;;31.90;30.90;;;;;;5091955;28;20020;-76
2022/05/10 08:27:02;;;;;;;10.90;4.70;;;31.60;31.30;;;;;;5091334;28;20082;-76
2022/05/10 08:29:28;;;;;;;9.50;4.22;;;31.20;32.00;;;;;;5091741;28;20035;-76
2022/05/10 08:34:37;;;;;;;10.32;4.40;;;31.10;32.20;;;;;;5091733;28;20058;-76
2022/05/10 08:37:04;;;;;;;12.05;4.72;;;30.80;32.90;;;;;;5091288;28;20024;-76
2022/05/10 08:39:30;;;;;;;9.18;4.28;;;30.50;32.70;;;;;;5091837;28;20089;-76
2022/05/10 08:42:04;;;;;;;10.07;3.40;;;30.40;33.00;;;;;;5091075;28;20039;-77
2022/05/10 08:44:35;;;;;;;9.50;4.22;;;30.50;35.40;;;;;;5092119;28;20036;-76
2022/05/10 08:47:06;;;;;;;6.85;4.07;;;30.70;34.50;;;;;;5091429;28;20031;-77
2022/05/10 08:49:51;;;;;;;9.43;4.30;;;31.00;35.50;;;;;;5091857;28;20028;-76
2022/05/10 08:52:17;;;;;;;11.45;4.53;;;31.20;35.10;;;;;;5091655;28;20473;-77
2022/05/10 08:54:44;;;;;;;10.15;4.05;;;31.00;32.80;;;;;;5091695;28;20110;-76
2022/05/10 08:57:20;;;;;;;7.75;4.13;;;30.70;33.10;;;;;;5091135;28;20119;-76
2022/05/10 09:00:07;;;;;;;21.13;5.38;;;30.20;33.60;;;;;;5091781;28;20025;-76
2022/05/10 09:02:44;;;;;;;9.27;4.78;;;30.00;34.00;;;;;;5091862;28;20031;-77
2022/05/10 09:05:26;;;;;;;11.82;4.72;;;29.50;34.50;;;;;;5091228;28;20052;-77
2022/05/10 09:08:20;;;;;;;11.52;4.22;;;29.30;35.00;;;;;;5090783;28;20123;-78
2022/05/10 09:10:50;;;;;;;9.43;4.20;;;28.90;35.30;;;;;;5091399;28;20495;-76
2022/05/10 09:13:19;;;;;;;11.10;4.45;;;28.60;36.20;;;;;;5090660;28;20560;-76
2022/05/10 09:16:04;;;;;;;10.00;4.32;;;28.20;36.40;;;;;;5091707;28;20080;-76
2022/05/10 09:18:52;;;;;;;8.93;4.32;;;27.80;37.00;;;;;;5091542;28;20039;-76
2022/05/10 09:21:24;;;;;;;7.35;4.18;;;27.60;37.80;;;;;;5091269;28;20385;-75
2022/05/10 09:24:26;;;;;;;6.43;3.92;;;27.30;38.30;;;;;;5091223;28;20034;-76
2022/05/10 09:26:57;;;;;;;9.57;4.03;;;27.20;38.00;;;;;;5090432;28;20082;-76
2022/05/10 09:29:35;;;;;;;10.60;4.07;;;27.10;38.10;;;;;;5091967;28;20024;-76
2022/05/10 09:35:28;;;;;;;11.52;4.47;;;27.30;39.40;;;;;;5090671;28;20038;-77
2022/05/10 09:38:06;;;;;;;7.75;3.70;;;27.30;38.50;;;;;;5091031;28;20480;-80
2022/05/10 09:40:34;;;;;;;8.27;4.03;;;27.30;39.40;;;;;;5091089;28;20407;-77
2022/05/10 09:43:17;;;;;;;10.23;4.05;;;27.40;39.90;;;;;;5094351;28;20059;-77
2022/05/10 09:45:43;;;;;;;18.05;4.55;;;27.30;38.90;;;;;;5111220;28;20381;-77
2022/05/10 09:48:09;;;;;;;7.40;3.67;;;27.30;38.30;;;;;;5094877;28;20032;-77
2022/05/10 09:50:42;;;;;;;9.30;4.45;;;27.20;37.60;;;;;;5095613;28;20115;-77
2022/05/10 09:53:18;;;;;;;5.68;3.10;;;27.10;37.80;;;;;;5095144;28;20024;-76
2022/05/10 09:56:07;;;;;;;5.57;3.25;;;27.00;37.20;;;;;;5095390;28;20028;-77
2022/05/10 09:58:36;;;;;;;7.10;3.63;;;26.80;35.50;;;;;;5094919;28;20028;-77
2022/05/10 10:01:09;;;;;;;6.50;3.10;;;26.80;36.00;;;;;;5094433;28;20035;-77
2022/05/10 10:03:37;;;;;;;8.30;2.60;;;26.70;35.90;;;;;;5095245;28;20028;-77
2022/05/10 10:06:18;;;;;;;8.50;3.22;;;26.70;36.90;;;;;;5094256;28;20085;-78
2022/05/10 10:08:50;;;;;;;5.13;2.90;;;26.90;37.10;;;;;;5094816;28;20460;-77
2022/05/10 10:11:21;;;;;;;7.88;2.88;;;26.90;36.30;;;;;;5094238;28;20412;-77
2022/05/10 10:13:55;;;;;;;4.28;2.75;;;26.90;36.30;;;;;;5094525;28;20028;-76
2022/05/10 10:16:30;;;;;;;6.18;3.28;;;26.90;35.80;;;;;;5094188;28;20131;-76
2022/05/10 10:18:59;;;;;;;6.40;2.63;;;26.80;36.70;;;;;;5094722;28;20028;-77
2022/05/10 10:21:41;;;;;;;5.47;3.03;;;26.70;37.20;;;;;;5094305;28;20030;-76
2022/05/10 10:24:07;;;;;;;9.13;3.13;;;26.80;36.20;;;;;;5073926;28;20020;-77
2022/05/10 10:26:44;;;;;;;7.45;3.30;;;26.80;36.20;;;;;;5074236;28;20044;-77
2022/05/10 10:29:13;;;;;;;8.00;2.83;;;26.90;36.20;;;;;;5073873;28;20162;-78
2022/05/10 10:31:46;;;;;;;10.18;3.67;;;27.00;36.50;;;;;;5074200;28;20403;-77
2022/05/10 10:34:33;;;;;;;8.07;2.95;;;27.10;35.50;;;;;;5073445;28;20347;-77
2022/05/10 10:37:39;;;;;;;5.20;2.67;;;27.10;35.60;;;;;;5073942;28;20401;-79
2022/05/10 10:40:23;;;;;;;3.30;2.58;;;27.20;36.50;;;;;;5073708;28;20419;-77
2022/05/10 10:42:59;;;;;;;6.57;3.33;;;27.40;36.90;;;;;;5074237;28;20024;-77
2022/05/10 10:45:44;;;;;;;6.63;2.92;;;27.30;35.40;;;;;;5089762;28;20377;-75
2022/05/10 10:48:19;;;;;;;10.48;2.80;;;27.10;35.40;;;;;;5073516;28;20029;-76
2022/05/10 10:50:44;;;;;;;6.95;3.13;;;26.90;35.80;;;;;;5074122;28;20036;-77
2022/05/10 10:53:12;;;;;;;6.53;2.70;;;26.80;36.00;;;;;;5072420;28;20031;-77
2022/05/10 10:55:43;;;;;;;6.95;2.60;;;26.60;36.60;;;;;;5073903;28;20024;-77
2022/05/10 10:58:24;;;;;;;6.18;2.63;;;26.50;36.50;;;;;;5072830;28;20449;-76
2022/05/10 11:01:01;;;;;;;4.18;2.63;;;26.50;36.40;;;;;;5074300;28;20037;-76
2022/05/10 11:04:03;;;;;;;6.55;2.92;;;26.50;36.80;;;;;;5074108;28;20414;-77
2022/05/10 11:06:38;;;;;;;6.85;2.53;;;26.50;37.60;;;;;;5073729;28;20158;-77
2022/05/10 11:09:24;;;;;;;4.95;2.58;;;26.40;36.20;;;;;;5072898;28;20473;-77
2022/05/10 11:12:36;;;;;;;7.43;3.22;;;26.20;37.30;;;;;;5073594;28;20040;-77
2022/05/10 11:15:07;;;;;;;8.05;2.80;;;26.20;36.60;;;;;;5050918;28;20048;-77
2022/05/10 11:17:53;;;;;;;5.93;3.00;;;26.10;36.00;;;;;;5073190;28;20036;-76
2022/05/10 11:20:35;;;;;;;7.35;3.00;;;26.10;36.40;;;;;;5072939;28;20020;-77
2022/05/10 11:23:06;;;;;;;6.90;2.92;;;26.00;36.70;;;;;;5073189;28;20354;-82
2022/05/10 11:25:54;;;;;;;4.80;2.78;;;26.00;36.60;;;;;;5078817;28;20472;-76
2022/05/10 11:28:40;;;;;;;4.10;2.55;;;26.10;37.50;;;;;;5093007;28;20032;-76
2022/05/10 11:31:25;;;;;;;5.00;2.63;;;26.20;38.00;;;;;;5093077;28;20093;-76
2022/05/10 11:34:11;;;;;;;7.90;3.10;;;26.40;37.50;;;;;;5093106;28;20035;-76
2022/05/10 11:36:48;;;;;;;6.10;2.75;;;26.40;36.40;;;;;;5093614;28;20181;-76
2022/05/10 11:39:55;;;;;;;9.02;3.08;;;26.30;35.90;;;;;;5092798;28;20028;-77
2022/05/10 11:42:34;;;;;;;4.05;3.00;;;26.30;36.50;;;;;;5092795;28;20051;-76
2022/05/10 11:45:12;;;;;;;7.03;3.10;;;26.40;36.70;;;;;;5093085;28;20388;-76
2022/05/10 11:48:14;;;;;;;6.20;2.80;;;26.40;36.00;;;;;;5093695;28;20133;-76
2022/05/10 11:51:38;;;;;;;8.63;3.58;;;26.40;36.60;;;;;;5093056;28;20040;-76
2022/05/10 11:53:52;;;;;;;7.22;2.95;;;26.40;36.30;;;;;;5092015;28;20108;-75
2022/05/10 11:56:18;;;;;;;9.77;3.05;;;26.50;38.00;;;;;;5092531;28;20020;-76
2022/05/10 11:58:44;;;;;;;7.25;3.35;;;26.50;37.10;;;;;;5093192;28;20032;-76
2022/05/10 12:01:12;;;;;;;9.57;3.42;;;26.40;37.00;;;;;;5092477;28;20038;-76
2022/05/10 12:03:44;;;;;;;11.10;3.40;;;26.40;36.90;;;;;;5093309;28;20031;-76
2022/05/10 12:06:24;;;;;;;9.13;2.97;;;26.30;36.90;;;;;;5092116;28;20031;-77
2022/05/10 12:09:04;;;;;;;17.85;3.83;;;26.20;37.00;;;;;;5093091;28;20028;-77
2022/05/10 12:11:32;;;;;;;8.00;3.78;;;26.20;37.00;;;;;;5092594;28;20126;-77
2022/05/10 12:22:58;;;;;;;6.32;3.05;;;25.70;37.70;;;;;;5092447;28;20035;-77
2022/05/10 12:25:59;;;;;;;8.52;3.28;;;25.80;38.40;;;;;;5091983;28;20028;-77
2022/05/10 12:29:06;;;;;;;6.22;3.45;;;25.60;39.10;;;;;;5092050;28;20023;-77
2022/05/10 12:31:32;;;;;;;7.00;3.40;;;25.50;38.70;;;;;;5029204;28;20056;-79
2022/05/10 12:34:01;;;;;;;8.63;3.10;;;25.50;38.10;;;;;;5029401;28;20025;-77
2022/05/10 12:36:31;;;;;;;7.28;3.40;;;25.40;38.00;;;;;;5028894;28;20044;-77
2022/05/10 12:39:15;;;;;;;6.88;3.03;;;25.30;38.10;;;;;;5029618;28;20140;-77
2022/05/10 12:42:00;;;;;;;9.25;3.20;;;25.20;38.70;;;;;;5029746;28;20032;-77
2022/05/10 12:44:25;;;;;;;5.72;3.35;;;25.10;38.40;;;;;;5028914;28;20398;-77
2022/05/10 12:47:14;;;;;;;7.20;3.50;;;25.10;37.90;;;;;;5029673;28;20025;-76
2022/05/10 12:50:01;;;;;;;9.13;3.50;;;25.00;37.90;;;;;;4999951;28;20043;-77
2022/05/10 12:52:39;;;;;;;6.38;3.00;;;25.00;38.70;;;;;;5028602;28;20037;-77
2022/05/10 12:55:15;;;;;;;5.60;3.33;;;25.00;38.70;;;;;;5029371;28;20103;-76
2022/05/10 12:57:46;;;;;;;4.70;3.10;;;24.90;38.00;;;;;;5029311;28;20068;-77
2022/05/10 13:00:21;;;;;;;6.47;3.00;;;24.90;38.20;;;;;;5028521;28;20060;-77
2022/05/10 13:03:02;;;;;;;7.72;2.97;;;24.90;38.50;;;;;;5059921;28;20040;-77
2022/05/10 13:05:40;;;;;;;;;;;24.90;39.80;;;;;;5070331;28;20021;-77
2022/05/10 13:08:38;;;;;;;6.63;3.00;;;25.00;39.50;;;;;;5071615;28;19993;-76
2022/05/10 13:11:05;;;;;;;5.20;3.00;;;25.00;38.50;;;;;;5071445;28;20033;-75
2022/05/10 13:13:33;;;;;;;4.13;3.15;;;25.00;37.90;;;;;;5070849;28;20032;-75
2022/05/10 13:16:01;;;;;;;6.20;4.45;;;25.00;38.20;;;;;;5070526;28;20048;-76
2022/05/10 13:18:28;;;;;;;6.30;2.67;;;25.10;38.50;;;;;;5079329;28;20031;-76
2022/05/10 13:20:56;;;;;;;6.18;2.47;;;25.00;38.00;;;;;;5091585;28;20028;-75
2022/05/10 13:23:28;;;;;;;4.63;2.50;;;25.00;38.20;;;;;;5090960;28;20024;-76
2022/05/10 13:25:54;;;;;;;12.85;2.70;;;25.00;38.60;;;;;;5091461;28;20107;-75